createdAt,value
2022-08-31T00:00:17.049Z,46.66
2022-08-31T00:03:02.632Z,46.68
2022-08-31T00:05:29.586Z,46.60
2022-08-31T00:07:56.739Z,46.66
2022-08-31T00:10:32.202Z,46.52
2022-08-31T00:13:04.665Z,46.51
2022-08-31T00:15:34.379Z,46.56
2022-08-31T00:18:01.323Z,46.60
2022-08-31T00:20:33.506Z,46.64
2022-08-31T00:23:06.586Z,46.60
2022-08-31T00:25:34.593Z,46.54
2022-08-31T00:28:02.328Z,46.59
2022-08-31T00:30:29.887Z,46.50
2022-08-31T00:32:57.113Z,46.57
2022-08-31T00:35:30.233Z,46.65
2022-08-31T00:37:57.903Z,46.65
2022-08-31T00:40:25.431Z,46.60
2022-08-31T00:42:52.511Z,46.64
2022-08-31T00:45:19.460Z,46.70
2022-08-31T00:47:46.816Z,46.83
2022-08-31T00:50:15.824Z,46.67
2022-08-31T00:52:45.786Z,46.55
2022-08-31T00:55:16.224Z,46.56
2022-08-31T00:57:43.922Z,46.56
2022-08-31T01:00:13.955Z,46.52
2022-08-31T01:02:40.930Z,46.56
2022-08-31T01:05:08.764Z,46.54
2022-08-31T01:07:35.911Z,46.49
2022-08-31T01:10:03.280Z,46.44
2022-08-31T01:12:30.265Z,46.54
2022-08-31T01:14:57.306Z,46.44
2022-08-31T01:17:24.253Z,46.46
2022-08-31T01:20:21.378Z,46.47
2022-08-31T01:22:57.440Z,46.53
2022-08-31T01:25:24.393Z,46.38
2022-08-31T01:28:00.555Z,46.31
2022-08-31T01:30:27.509Z,46.34
2022-08-31T01:32:54.668Z,46.34
2022-08-31T01:35:21.709Z,46.26
2022-08-31T01:37:48.760Z,46.27
2022-08-31T01:40:16.382Z,46.24
2022-08-31T01:42:43.586Z,46.18
2022-08-31T01:45:10.999Z,46.06
2022-08-31T01:47:39.733Z,46.08
2022-08-31T01:50:07.533Z,46.05
2022-08-31T01:52:36.139Z,45.97
2022-08-31T01:55:05.443Z,45.95
2022-08-31T01:57:33.949Z,45.95
2022-08-31T02:00:06.579Z,45.84
2022-08-31T02:02:33.655Z,45.74
2022-08-31T02:05:00.752Z,45.74
2022-08-31T02:07:27.725Z,45.65
2022-08-31T02:09:55.668Z,45.63
2022-08-31T02:12:23.230Z,45.52
2022-08-31T02:14:50.182Z,45.52
2022-08-31T02:17:17.332Z,45.55
2022-08-31T02:19:44.181Z,45.50
2022-08-31T02:22:11.056Z,45.61
2022-08-31T02:24:38.486Z,45.48
2022-08-31T02:27:06.050Z,45.40
2022-08-31T02:29:33.510Z,45.19
2022-08-31T02:32:00.385Z,45.24
2022-08-31T02:34:28.324Z,45.23
2022-08-31T02:36:55.865Z,45.24
2022-08-31T02:39:24.376Z,45.19
2022-08-31T02:41:51.829Z,45.16
2022-08-31T02:44:18.978Z,45.16
2022-08-31T02:46:46.067Z,45.01
2022-08-31T02:49:13.796Z,45.14
2022-08-31T02:51:41.884Z,45.14
2022-08-31T02:54:08.924Z,45.12
2022-08-31T02:56:35.779Z,45.10
2022-08-31T02:59:02.823Z,45.19
2022-08-31T03:01:30.035Z,45.17
2022-08-31T03:03:57.241Z,45.11
2022-08-31T03:06:24.402Z,45.04
2022-08-31T03:08:51.449Z,45.04
2022-08-31T03:11:18.909Z,44.94
2022-08-31T03:13:46.162Z,44.86
2022-08-31T03:16:13.926Z,44.92
2022-08-31T03:18:40.995Z,44.74
2022-08-31T03:21:07.951Z,44.71
2022-08-31T03:23:34.895Z,44.70
2022-08-31T03:26:01.941Z,44.72
2022-08-31T03:28:28.884Z,44.65
2022-08-31T03:30:55.971Z,44.73
2022-08-31T03:33:22.902Z,44.82
2022-08-31T03:35:51.152Z,44.72
2022-08-31T03:38:17.928Z,44.78
2022-08-31T03:40:45.071Z,44.63
2022-08-31T03:43:12.978Z,44.62
2022-08-31T03:45:40.755Z,44.69
2022-08-31T03:48:12.179Z,44.56
2022-08-31T03:50:40.112Z,44.55
2022-08-31T03:53:07.670Z,44.62
2022-08-31T03:55:35.183Z,44.51
2022-08-31T03:58:02.279Z,44.51
2022-08-31T04:00:30.452Z,44.60
2022-08-31T04:03:00.046Z,44.48
2022-08-31T04:05:31.152Z,44.58
2022-08-31T04:07:58.185Z,44.60
2022-08-31T04:10:25.415Z,44.57
2022-08-31T04:12:52.359Z,44.60
2022-08-31T04:15:20.639Z,44.61
2022-08-31T04:17:48.308Z,44.47
2022-08-31T04:20:17.719Z,44.54
2022-08-31T04:22:45.797Z,44.47
2022-08-31T04:25:12.749Z,44.39
2022-08-31T04:27:45.229Z,44.35
2022-08-31T04:30:12.727Z,44.30
2022-08-31T04:32:39.749Z,44.20
2022-08-31T04:35:08.605Z,44.18
2022-08-31T04:37:35.693Z,44.19
2022-08-31T04:40:05.227Z,44.10
2022-08-31T04:42:32.363Z,44.05
2022-08-31T04:44:59.312Z,44.13
2022-08-31T04:47:26.364Z,44.11
2022-08-31T04:49:53.933Z,43.96
2022-08-31T04:52:24.667Z,43.99
2022-08-31T04:54:55.846Z,43.84
2022-08-31T04:57:22.774Z,43.82
2022-08-31T04:59:49.621Z,43.82
2022-08-31T05:02:16.807Z,43.67
2022-08-31T05:04:44.345Z,43.71
2022-08-31T05:07:11.704Z,43.58
2022-08-31T05:09:38.758Z,43.38
2022-08-31T05:12:05.806Z,43.37
2022-08-31T05:14:32.654Z,43.34
2022-08-31T05:17:01.758Z,43.23
2022-08-31T05:19:29.321Z,43.09
2022-08-31T05:21:56.686Z,42.92
2022-08-31T05:24:24.827Z,42.73
2022-08-31T05:26:53.865Z,42.70
2022-08-31T05:29:22.877Z,42.67
2022-08-31T05:31:52.423Z,42.58
2022-08-31T05:34:21.038Z,42.52
2022-08-31T05:36:51.296Z,42.42
2022-08-31T05:39:18.207Z,42.35
2022-08-31T05:41:45.951Z,42.27
2022-08-31T05:44:12.922Z,42.04
2022-08-31T05:46:40.005Z,41.97
2022-08-31T05:49:07.753Z,42.16
2022-08-31T05:51:38.624Z,41.98
2022-08-31T05:54:07.764Z,41.88
2022-08-31T05:56:35.940Z,41.88
2022-08-31T05:59:03.289Z,41.51
2022-08-31T06:01:32.134Z,41.38
2022-08-31T06:03:59.429Z,41.38
2022-08-31T06:06:26.711Z,41.17
2022-08-31T06:08:55.860Z,40.96
2022-08-31T06:11:26.599Z,40.81
2022-08-31T06:13:54.318Z,40.68
2022-08-31T06:16:21.664Z,40.70
2022-08-31T06:18:51.554Z,40.50
2022-08-31T06:21:23.311Z,40.41
2022-08-31T06:23:51.081Z,40.14
2022-08-31T06:26:20.236Z,40.02
2022-08-31T06:28:48.826Z,39.87
2022-08-31T06:31:27.986Z,39.98
2022-08-31T06:33:56.177Z,39.52
2022-08-31T06:36:25.899Z,39.28
2022-08-31T06:38:53.144Z,39.15
2022-08-31T06:41:22.651Z,39.26
2022-08-31T06:43:49.600Z,38.86
2022-08-31T06:46:17.902Z,38.58
2022-08-31T06:48:45.649Z,38.67
2022-08-31T06:51:13.725Z,38.43
2022-08-31T06:53:42.549Z,38.16
2022-08-31T06:56:20.127Z,37.94
2022-08-31T06:58:48.811Z,37.88
2022-08-31T07:01:35.032Z,37.69
2022-08-31T07:04:09.015Z,37.72
2022-08-31T07:06:41.391Z,37.60
2022-08-31T07:09:10.215Z,37.50
2022-08-31T07:11:44.355Z,37.34
2022-08-31T07:14:15.082Z,37.23
2022-08-31T07:16:43.058Z,37.03
2022-08-31T07:19:10.062Z,36.92
2022-08-31T07:21:42.441Z,36.78
2022-08-31T07:24:10.423Z,36.69
2022-08-31T07:26:48.951Z,36.64
2022-08-31T07:29:19.113Z,36.51
2022-08-31T07:31:47.555Z,36.08
2022-08-31T07:34:14.793Z,36.23
2022-08-31T07:37:01.101Z,36.14
2022-08-31T07:39:47.299Z,35.74
2022-08-31T07:42:16.022Z,35.73
2022-08-31T07:44:43.037Z,35.15
2022-08-31T07:47:22.032Z,34.97
2022-08-31T07:49:51.579Z,35.03
2022-08-31T07:52:31.734Z,34.91
2022-08-31T07:55:05.153Z,34.75
2022-08-31T07:57:38.165Z,34.50
2022-08-31T08:00:09.211Z,34.33
2022-08-31T08:02:40.429Z,34.33
2022-08-31T08:05:11.246Z,34.26
2022-08-31T08:07:39.726Z,34.01
2022-08-31T08:10:14.697Z,33.82
2022-08-31T08:12:42.945Z,33.49
2022-08-31T08:15:10.458Z,33.50
2022-08-31T08:17:38.273Z,33.59
2022-08-31T08:20:11.664Z,33.48
2022-08-31T08:22:54.237Z,33.00
2022-08-31T08:25:25.809Z,32.71
2022-08-31T08:27:54.803Z,32.58
2022-08-31T08:30:22.405Z,32.47
2022-08-31T08:32:49.874Z,32.19
2022-08-31T08:35:17.013Z,32.03
2022-08-31T08:38:07.010Z,31.75
2022-08-31T08:40:42.849Z,31.61
2022-08-31T08:43:16.307Z,31.57
2022-08-31T08:45:44.510Z,31.40
2022-08-31T08:48:13.884Z,31.29
2022-08-31T08:50:41.110Z,31.38
2022-08-31T08:53:12.690Z,31.36
2022-08-31T08:55:41.427Z,31.25
2022-08-31T08:58:13.551Z,31.04
2022-08-31T09:00:46.821Z,30.24
2022-08-31T09:03:31.149Z,30.62
2022-08-31T09:06:09.911Z,30.56
2022-08-31T09:08:43.952Z,29.99
2022-08-31T09:11:24.144Z,30.06
2022-08-31T09:14:30.312Z,29.98
2022-08-31T09:17:17.225Z,30.09
2022-08-31T09:20:03.842Z,29.74
2022-08-31T09:22:35.186Z,29.51
2022-08-31T09:25:06.253Z,29.36
2022-08-31T09:28:08.090Z,29.66
2022-08-31T09:30:52.600Z,29.22
2022-08-31T09:33:23.690Z,28.97
2022-08-31T09:35:58.558Z,28.86
2022-08-31T09:38:40.414Z,28.76
2022-08-31T09:41:23.443Z,28.59
2022-08-31T09:43:50.994Z,28.76
2022-08-31T09:46:29.848Z,28.55
2022-08-31T09:48:58.615Z,28.50
2022-08-31T09:51:28.365Z,27.89
2022-08-31T09:54:26.288Z,27.59
2022-08-31T09:56:58.764Z,27.79
2022-08-31T09:59:48.125Z,27.72
2022-08-31T10:02:23.218Z,27.54
2022-08-31T10:05:06.710Z,26.90
2022-08-31T10:07:44.199Z,27.03
2022-08-31T10:10:28.128Z,27.60
2022-08-31T10:13:04.535Z,27.34
2022-08-31T10:15:39.897Z,27.59
2022-08-31T10:18:26.348Z,26.87
2022-08-31T10:21:09.471Z,26.68
2022-08-31T10:24:08.977Z,26.30
2022-08-31T10:26:47.097Z,26.50
2022-08-31T10:29:23.361Z,26.29
2022-08-31T10:31:52.475Z,26.15
2022-08-31T10:34:41.450Z,26.17
2022-08-31T10:37:31.794Z,26.17
2022-08-31T10:40:00.753Z,26.25
2022-08-31T10:42:37.671Z,26.37
2022-08-31T10:45:18.446Z,26.59
2022-08-31T10:47:49.167Z,26.08
2022-08-31T10:50:30.899Z,25.23
2022-08-31T10:53:26.490Z,25.26
2022-08-31T10:56:18.417Z,25.15
2022-08-31T10:59:07.680Z,25.35
2022-08-31T11:01:48.959Z,24.87
2022-08-31T11:04:29.579Z,24.91
2022-08-31T11:07:00.673Z,25.12
2022-08-31T11:09:55.358Z,24.96
2022-08-31T11:12:33.474Z,23.95
2022-08-31T11:15:29.103Z,24.07
2022-08-31T11:18:25.615Z,24.38
2022-08-31T11:21:00.546Z,24.97
2022-08-31T11:23:42.369Z,24.80
2022-08-31T11:26:36.520Z,24.94
2022-08-31T11:29:29.576Z,24.63
2022-08-31T11:32:21.504Z,24.59
2022-08-31T11:34:51.628Z,24.45
2022-08-31T11:37:53.090Z,24.75
2022-08-31T11:40:44.203Z,24.74
2022-08-31T11:43:15.637Z,24.28
2022-08-31T11:45:43.167Z,24.47
2022-08-31T11:49:02.258Z,24.09
2022-08-31T11:51:41.742Z,24.11
2022-08-31T11:54:15.293Z,23.47
2022-08-31T11:56:45.536Z,23.55
2022-08-31T11:59:39.086Z,23.95
2022-08-31T12:02:24.542Z,23.83
2022-08-31T12:05:03.225Z,23.58
2022-08-31T12:07:35.039Z,24.08
2022-08-31T12:10:34.684Z,24.02
2022-08-31T12:13:18.889Z,24.07
2022-08-31T12:16:09.612Z,24.23
2022-08-31T12:18:38.608Z,24.17
2022-08-31T12:22:02.620Z,24.07
2022-08-31T12:24:49.249Z,24.06
2022-08-31T12:27:25.766Z,24.06
2022-08-31T12:29:53.810Z,24.13
2022-08-31T12:32:23.751Z,24.29
2022-08-31T12:35:14.047Z,24.14
2022-08-31T12:37:41.092Z,23.94
2022-08-31T12:40:15.393Z,23.90
2022-08-31T12:42:59.351Z,24.40
2022-08-31T12:45:54.137Z,24.41
2022-08-31T12:48:27.364Z,24.34
2022-08-31T12:51:00.365Z,24.34
2022-08-31T12:53:49.086Z,24.36
2022-08-31T12:56:48.730Z,24.33
2022-08-31T12:59:45.726Z,24.57
2022-08-31T13:02:16.706Z,24.46
2022-08-31T13:04:47.536Z,24.65
2022-08-31T13:07:29.748Z,24.66
2022-08-31T13:10:09.793Z,24.63
2022-08-31T13:12:37.047Z,24.51
2022-08-31T13:15:05.358Z,24.66
2022-08-31T13:17:37.905Z,24.70
2022-08-31T13:20:07.819Z,24.43
2022-08-31T13:22:40.312Z,24.47
2022-08-31T13:25:32.849Z,24.54
2022-08-31T13:27:59.995Z,24.54
2022-08-31T13:30:27.661Z,24.44
2022-08-31T13:32:55.044Z,24.61
2022-08-31T13:35:25.035Z,24.60
2022-08-31T13:38:06.421Z,24.68
2022-08-31T13:40:37.523Z,24.68
2022-08-31T13:43:09.399Z,24.64
2022-08-31T13:45:40.779Z,24.76
2022-08-31T13:48:13.433Z,24.78
2022-08-31T13:50:52.502Z,24.78
2022-08-31T13:53:43.024Z,24.78
2022-08-31T13:56:42.813Z,24.73
2022-08-31T13:59:26.965Z,24.89
2022-08-31T14:01:54.321Z,24.96
2022-08-31T14:04:48.989Z,25.03
2022-08-31T14:07:44.124Z,25.02
2022-08-31T14:10:20.289Z,25.22
2022-08-31T14:13:21.222Z,25.28
2022-08-31T14:15:56.345Z,25.48
2022-08-31T14:18:28.689Z,25.63
2022-08-31T14:21:26.644Z,25.81
2022-08-31T14:24:05.073Z,25.88
2022-08-31T14:26:41.826Z,25.98
2022-08-31T14:29:12.212Z,26.02
2022-08-31T14:31:53.673Z,26.20
2022-08-31T14:34:35.118Z,26.33
2022-08-31T14:37:06.463Z,26.24
2022-08-31T14:39:37.443Z,26.34
2022-08-31T14:42:07.282Z,26.44
2022-08-31T14:44:41.661Z,26.66
2022-08-31T14:47:09.938Z,26.77
2022-08-31T14:49:38.098Z,26.86
2022-08-31T14:52:06.703Z,26.77
2022-08-31T14:54:37.331Z,26.89
2022-08-31T14:57:16.128Z,27.20
2022-08-31T14:59:44.320Z,27.36
2022-08-31T15:02:12.992Z,27.61
2022-08-31T15:04:45.543Z,27.68
2022-08-31T15:07:13.427Z,27.93
2022-08-31T15:09:42.674Z,28.15
2022-08-31T15:12:14.746Z,28.28
2022-08-31T15:14:45.278Z,28.36
2022-08-31T15:17:19.228Z,28.53
2022-08-31T15:19:48.387Z,28.70
2022-08-31T15:22:17.552Z,28.71
2022-08-31T15:24:47.091Z,28.82
2022-08-31T15:27:15.786Z,29.00
2022-08-31T15:29:43.453Z,29.15
2022-08-31T15:32:10.564Z,29.26
2022-08-31T15:34:37.860Z,29.45
2022-08-31T15:37:06.344Z,29.56
2022-08-31T15:39:35.829Z,29.56
2022-08-31T15:42:09.156Z,29.66
2022-08-31T15:44:37.983Z,29.77
2022-08-31T15:47:25.060Z,29.87
2022-08-31T15:49:52.112Z,30.22
2022-08-31T15:52:19.260Z,30.36
2022-08-31T15:54:46.928Z,30.60
2022-08-31T15:57:16.235Z,30.61
2022-08-31T15:59:43.905Z,30.64
2022-08-31T16:02:13.101Z,30.66
2022-08-31T16:04:43.126Z,30.86
2022-08-31T16:07:11.612Z,30.86
2022-08-31T16:09:44.836Z,30.95
2022-08-31T16:12:16.235Z,30.86
2022-08-31T16:14:46.998Z,31.05
2022-08-31T16:17:20.184Z,31.31
2022-08-31T16:19:49.534Z,31.41
2022-08-31T16:22:19.087Z,31.60
2022-08-31T16:24:47.165Z,31.48
2022-08-31T16:27:16.431Z,31.43
2022-08-31T16:29:43.704Z,31.50
2022-08-31T16:32:10.795Z,31.68
2022-08-31T16:34:39.589Z,31.93
2022-08-31T16:37:07.954Z,31.83
2022-08-31T16:39:36.328Z,31.78
2022-08-31T16:42:06.357Z,32.00
2022-08-31T16:44:36.806Z,31.78
2022-08-31T16:47:05.321Z,31.97
2022-08-31T16:49:36.413Z,31.98
2022-08-31T16:52:06.850Z,32.14
2022-08-31T16:54:34.445Z,32.29
2022-08-31T16:57:01.432Z,32.32
2022-08-31T16:59:29.091Z,32.54
2022-08-31T17:01:57.402Z,32.44
2022-08-31T17:04:48.547Z,32.50
2022-08-31T17:07:14.080Z,32.62
2022-08-31T17:09:41.435Z,32.69
2022-08-31T17:12:13.408Z,32.63
2022-08-31T17:14:51.431Z,32.50
2022-08-31T17:17:20.699Z,32.61
2022-08-31T17:19:47.688Z,32.96
2022-08-31T17:22:23.258Z,32.94
2022-08-31T17:24:57.846Z,32.97
2022-08-31T17:27:25.799Z,32.97
2022-08-31T17:29:53.969Z,33.11
2022-08-31T17:32:23.938Z,33.08
2022-08-31T17:34:52.082Z,33.13
2022-08-31T17:37:27.935Z,33.26
2022-08-31T17:39:55.628Z,33.44
2022-08-31T17:42:23.697Z,33.31
2022-08-31T17:44:52.290Z,33.23
2022-08-31T17:47:20.624Z,33.47
2022-08-31T17:49:47.807Z,33.49
2022-08-31T17:52:14.756Z,33.59
2022-08-31T17:54:43.482Z,33.55
2022-08-31T17:57:13.146Z,33.80
2022-08-31T17:59:41.806Z,33.89
2022-08-31T18:02:13.239Z,33.82
2022-08-31T18:04:41.136Z,33.87
2022-08-31T18:07:09.349Z,34.04
2022-08-31T18:09:44.438Z,34.13
2022-08-31T18:12:11.811Z,34.21
2022-08-31T18:14:39.793Z,34.23
2022-08-31T18:17:08.762Z,34.26
2022-08-31T18:19:36.127Z,34.28
2022-08-31T18:22:04.098Z,34.18
2022-08-31T18:24:35.637Z,34.37
2022-08-31T18:27:07.446Z,34.46
2022-08-31T18:29:35.811Z,34.36
2022-08-31T18:32:04.359Z,34.34
2022-08-31T18:34:33.336Z,34.36
2022-08-31T18:37:00.757Z,34.42
2022-08-31T18:39:51.515Z,34.39
2022-08-31T18:42:38.348Z,34.43
2022-08-31T18:45:17.098Z,34.41
2022-08-31T18:48:01.580Z,34.41
2022-08-31T18:50:37.327Z,34.44
2022-08-31T18:53:10.802Z,34.47
2022-08-31T18:55:42.751Z,34.58
2022-08-31T18:58:10.418Z,34.60
2022-08-31T19:00:40.481Z,34.65
2022-08-31T19:03:07.745Z,34.66
2022-08-31T19:05:38.479Z,34.71
2022-08-31T19:08:05.490Z,34.81
2022-08-31T19:10:32.357Z,34.97
2022-08-31T19:13:01.504Z,34.93
2022-08-31T19:15:35.226Z,35.12
2022-08-31T19:18:05.639Z,35.23
2022-08-31T19:20:33.632Z,35.16
2022-08-31T19:23:01.048Z,35.29
2022-08-31T19:25:28.479Z,35.34
2022-08-31T19:27:56.345Z,35.41
2022-08-31T19:30:28.074Z,35.50
2022-08-31T19:32:56.698Z,35.54
2022-08-31T19:35:27.170Z,35.61
2022-08-31T19:37:55.570Z,35.67
2022-08-31T19:40:23.209Z,35.69
2022-08-31T19:45:43.210Z,35.95
2022-08-31T19:48:13.618Z,36.00
2022-08-31T19:50:42.361Z,35.98
2022-08-31T19:53:13.419Z,35.97
2022-08-31T19:55:50.255Z,36.10
2022-08-31T19:58:18.116Z,36.19
2022-08-31T20:00:45.268Z,36.24
2022-08-31T20:03:16.212Z,36.25
2022-08-31T20:05:43.704Z,36.28
2022-08-31T20:08:11.137Z,36.41
2022-08-31T20:10:42.395Z,36.41
2022-08-31T20:13:10.268Z,36.41
2022-08-31T20:15:41.221Z,36.43
2022-08-31T20:18:11.457Z,36.38
2022-08-31T20:20:45.353Z,36.50
2022-08-31T20:23:17.010Z,36.65
2022-08-31T20:25:45.086Z,36.68
2022-08-31T20:28:12.353Z,36.54
2022-08-31T20:30:40.838Z,36.61
2022-08-31T20:33:08.493Z,36.75
2022-08-31T20:35:36.526Z,36.86
2022-08-31T20:38:03.618Z,36.89
2022-08-31T20:40:30.615Z,36.82
2022-08-31T20:42:58.139Z,36.96
2022-08-31T20:45:25.293Z,36.98
2022-08-31T20:48:10.879Z,37.08
2022-08-31T20:50:40.281Z,37.12
2022-08-31T20:53:07.876Z,36.99
2022-08-31T20:55:36.434Z,37.15
2022-08-31T20:58:04.332Z,37.23
2022-08-31T21:00:32.824Z,37.15
2022-08-31T21:03:00.719Z,37.24
2022-08-31T21:05:39.062Z,37.39
2022-08-31T21:08:06.340Z,37.59
2022-08-31T21:10:37.230Z,37.56
2022-08-31T21:13:07.200Z,37.69
2022-08-31T21:15:34.253Z,37.74
2022-08-31T21:18:01.711Z,37.77
2022-08-31T21:20:29.073Z,37.82
2022-08-31T21:22:55.946Z,37.97
2022-08-31T21:25:23.378Z,37.96
2022-08-31T21:27:50.329Z,37.99
2022-08-31T21:30:18.953Z,38.07
2022-08-31T21:32:47.096Z,38.13
2022-08-31T21:35:17.014Z,38.25
2022-08-31T21:37:44.170Z,38.25
2022-08-31T21:40:12.278Z,38.34
2022-08-31T21:42:40.115Z,38.52
2022-08-31T21:45:07.890Z,38.60
2022-08-31T21:47:34.830Z,38.53
2022-08-31T21:50:01.832Z,38.47
2022-08-31T21:52:29.090Z,38.38
2022-08-31T21:54:56.604Z,38.54
2022-08-31T21:57:25.086Z,38.55
2022-08-31T21:59:52.032Z,38.61
2022-08-31T22:02:20.035Z,38.62
2022-08-31T22:04:47.258Z,38.79
2022-08-31T22:07:14.959Z,38.79
2022-08-31T22:09:43.472Z,38.72
2022-08-31T22:12:15.207Z,38.83
2022-08-31T22:14:44.892Z,38.82
2022-08-31T22:17:13.272Z,38.87
2022-08-31T22:19:41.452Z,38.96
2022-08-31T22:22:11.988Z,39.06
2022-08-31T22:24:40.218Z,38.97
2022-08-31T22:27:08.579Z,39.19
2022-08-31T22:29:36.617Z,39.31
2022-08-31T22:32:08.776Z,39.31
2022-08-31T22:34:37.294Z,39.44
2022-08-31T22:37:04.754Z,39.47
2022-08-31T22:39:31.803Z,39.44
2022-08-31T22:41:59.167Z,39.44
2022-08-31T22:44:27.885Z,39.54
2022-08-31T22:46:57.276Z,39.55
2022-08-31T22:49:25.133Z,39.57
2022-08-31T22:51:52.287Z,39.66
2022-08-31T22:54:19.542Z,39.53
2022-08-31T22:56:47.108Z,39.60
2022-08-31T22:59:17.816Z,39.82
2022-08-31T23:01:47.677Z,39.96
2022-08-31T23:04:20.429Z,39.91
2022-08-31T23:06:49.484Z,39.83
2022-08-31T23:09:16.711Z,39.75
2022-08-31T23:11:43.659Z,39.84
2022-08-31T23:14:10.709Z,40.05
2022-08-31T23:16:40.401Z,40.03
2022-08-31T23:19:19.390Z,39.94
2022-08-31T23:21:52.554Z,40.13
2022-08-31T23:24:23.831Z,40.12
2022-08-31T23:26:53.315Z,40.20
2022-08-31T23:29:22.010Z,40.20
2022-08-31T23:31:49.063Z,40.20
2022-08-31T23:34:16.528Z,40.33
2022-08-31T23:36:47.783Z,40.40
2022-08-31T23:39:19.035Z,40.51
2022-08-31T23:41:47.314Z,40.51
2022-08-31T23:44:15.081Z,40.57
2022-08-31T23:46:43.454Z,40.54
2022-08-31T23:49:11.544Z,40.52
2022-08-31T23:51:38.597Z,40.67
2022-08-31T23:54:08.224Z,40.78
2022-08-31T23:56:37.440Z,40.66
2022-08-31T23:59:09.579Z,40.71
